Time;durP1;ratioP1;P1;durP2;ratioP2;P2;SDS_P1;SDS_P2;PMS_P1;PMS_P2;Temp;Humidity;BMP_temperature;BMP_pressure;BME280_temperature;BME280_humidity;BME280_pressure;Samples;Min_cycle;Max_cycle;Signal;HPM_P1;HPM_P2
2021/10/07 00:01:29;;;;;;;10.25;2.80;;;12.80;99.90;;;;;;4937953;29;20122;-92
2021/10/07 00:03:55;;;;;;;9.73;2.45;;;12.80;99.90;;;;;;4922068;29;20051;-93
2021/10/07 00:06:21;;;;;;;9.65;2.55;;;12.80;99.90;;;;;;4954795;29;20027;-92
2021/10/07 00:08:47;;;;;;;9.27;2.25;;;12.80;99.90;;;;;;4955098;29;20032;-93
2021/10/07 00:11:14;;;;;;;5.50;2.85;;;12.80;99.90;;;;;;4942352;29;20098;-92
2021/10/07 00:13:40;;;;;;;7.22;2.05;;;12.80;99.90;;;;;;4938600;29;20079;-92
2021/10/07 00:16:07;;;;;;;7.50;2.50;;;12.80;99.90;;;;;;4938341;29;20027;-92
2021/10/07 00:18:37;;;;;;;6.97;2.53;;;12.80;99.90;;;;;;4938311;29;20032;-92
2021/10/07 00:21:04;;;;;;;9.75;2.85;;;12.80;99.90;;;;;;4938002;29;20020;-93
2021/10/07 00:23:35;;;;;;;6.00;2.50;;;12.80;99.90;;;;;;4921262;29;20032;-93
2021/10/07 00:26:00;;;;;;;4.80;2.90;;;12.80;99.90;;;;;;4921294;29;20075;-92
2021/10/07 00:28:30;;;;;;;5.15;2.30;;;12.80;99.90;;;;;;4938606;29;20020;-92
2021/10/07 00:30:58;;;;;;;6.32;2.45;;;12.80;99.90;;;;;;4920607;29;20036;-92
2021/10/07 00:33:29;;;;;;;4.35;2.42;;;12.80;99.90;;;;;;4922613;29;20035;-92
2021/10/07 00:41:11;;;;;;;7.57;2.97;;;12.80;99.90;;;;;;4938019;29;20500;-91
2021/10/07 00:43:36;;;;;;;4.15;2.40;;;12.80;99.90;;;;;;4920774;29;20036;-91
2021/10/07 00:46:02;;;;;;;6.85;2.70;;;12.80;99.90;;;;;;4937565;29;20019;-91
2021/10/07 00:48:28;;;;;;;10.52;2.70;;;12.80;99.90;;;;;;4937369;29;20107;-92
2021/10/07 00:50:54;;;;;;;5.75;2.42;;;12.90;99.90;;;;;;4921101;29;20032;-92
2021/10/07 00:53:20;;;;;;;5.10;2.63;;;12.90;99.90;;;;;;4937937;29;20409;-91
2021/10/07 00:55:47;;;;;;;7.30;3.45;;;12.90;99.90;;;;;;4920421;29;20459;-91
2021/10/07 00:58:14;;;;;;;6.35;2.90;;;12.90;99.90;;;;;;4920582;29;20031;-91
2021/10/07 01:00:41;;;;;;;7.10;2.53;;;12.90;99.90;;;;;;4936309;29;20023;-92
2021/10/07 01:03:08;;;;;;;8.18;3.00;;;12.80;99.90;;;;;;4937445;29;20401;-91
2021/10/07 01:05:34;;;;;;;6.97;3.00;;;12.80;99.90;;;;;;4937167;29;20402;-91
2021/10/07 01:08:00;;;;;;;7.45;2.40;;;12.80;99.90;;;;;;4936154;29;20123;-91
2021/10/07 01:10:26;;;;;;;7.07;2.63;;;12.80;99.90;;;;;;4936781;29;20020;-92
2021/10/07 01:12:52;;;;;;;10.23;3.47;;;12.80;99.90;;;;;;4920240;29;20031;-92
2021/10/07 01:15:18;;;;;;;5.63;2.78;;;12.80;99.90;;;;;;4920413;29;20035;-92
2021/10/07 01:17:44;;;;;;;6.57;2.90;;;12.80;99.90;;;;;;4937000;29;20031;-91
2021/10/07 01:20:12;;;;;;;8.75;2.83;;;12.80;99.90;;;;;;4920039;29;20171;-94
2021/10/07 01:22:38;;;;;;;7.57;3.20;;;12.80;99.90;;;;;;4935977;29;20023;-91
2021/10/07 01:25:05;;;;;;;9.88;4.00;;;12.80;99.90;;;;;;4935723;29;20063;-92
2021/10/07 01:27:33;;;;;;;11.70;3.83;;;12.80;99.90;;;;;;4919821;29;20034;-91
2021/10/07 01:30:03;;;;;;;8.57;3.72;;;12.70;99.90;;;;;;4937042;29;20028;-92
2021/10/07 01:32:32;;;;;;;6.80;3.97;;;12.70;99.90;;;;;;4936797;29;20024;-91
2021/10/07 01:34:58;;;;;;;9.57;3.20;;;12.70;99.90;;;;;;4935538;29;20065;-90
2021/10/07 01:37:23;;;;;;;6.90;3.30;;;12.70;99.90;;;;;;4919959;29;20476;-92
2021/10/07 01:39:49;;;;;;;7.60;4.07;;;12.70;99.90;;;;;;4919536;29;20375;-91
2021/10/07 01:42:15;;;;;;;12.75;3.50;;;12.70;99.90;;;;;;4919946;29;20430;-90
2021/10/07 01:44:40;;;;;;;12.93;4.20;;;12.70;99.90;;;;;;4919857;29;20059;-91
2021/10/07 01:47:06;;;;;;;13.30;4.28;;;12.70;99.90;;;;;;4936695;29;20359;-90
2021/10/07 01:49:32;;;;;;;12.05;4.20;;;12.70;99.90;;;;;;4920150;29;20020;-91
2021/10/07 01:51:58;;;;;;;9.68;4.13;;;12.70;99.90;;;;;;4937498;29;20382;-91
2021/10/07 01:54:23;;;;;;;14.88;4.00;;;12.70;99.90;;;;;;4937511;29;20252;-90
2021/10/07 01:56:49;;;;;;;11.90;3.95;;;12.70;99.90;;;;;;4930288;29;20023;-90
2021/10/07 01:59:16;;;;;;;14.75;5.22;;;12.70;99.90;;;;;;4956554;29;20027;-91
2021/10/07 02:01:41;;;;;;;13.65;4.38;;;12.80;99.90;;;;;;4935738;29;20556;-90
2021/10/07 02:04:07;;;;;;;13.50;4.15;;;12.80;99.90;;;;;;4944713;29;20078;-92
2021/10/07 02:06:36;;;;;;;15.48;4.45;;;12.80;99.90;;;;;;4927161;29;20026;-91
2021/10/07 02:09:04;;;;;;;10.55;4.60;;;12.70;99.90;;;;;;4940774;29;20114;-91
2021/10/07 02:11:29;;;;;;;13.10;4.13;;;12.80;99.90;;;;;;4923961;29;20027;-91
2021/10/07 02:13:55;;;;;;;15.18;4.68;;;12.80;99.90;;;;;;4937717;29;20106;-92
2021/10/07 02:16:21;;;;;;;12.35;4.47;;;12.80;99.90;;;;;;4919486;29;20485;-91
2021/10/07 02:18:47;;;;;;;12.20;4.47;;;12.80;99.90;;;;;;4919636;29;20028;-92
2021/10/07 02:21:12;;;;;;;18.40;4.70;;;12.80;99.90;;;;;;4919846;29;20028;-92
2021/10/07 02:23:38;;;;;;;13.10;4.68;;;12.80;99.90;;;;;;4919309;29;20028;-91
2021/10/07 02:26:04;;;;;;;14.15;4.07;;;12.80;99.90;;;;;;4919297;29;20035;-92
2021/10/07 02:28:29;;;;;;;10.10;4.30;;;12.80;99.90;;;;;;4936346;29;20486;-92
2021/10/07 02:30:57;;;;;;;11.55;4.32;;;12.80;99.90;;;;;;4919452;29;20031;-92
2021/10/07 02:33:24;;;;;;;14.65;5.07;;;12.80;99.90;;;;;;4919393;29;20035;-92
2021/10/07 02:35:50;;;;;;;18.45;4.68;;;12.80;99.90;;;;;;4936386;29;20032;-92
2021/10/07 02:38:15;;;;;;;11.80;3.80;;;12.80;99.90;;;;;;4935975;29;20110;-91
2021/10/07 02:40:41;;;;;;;12.05;3.33;;;12.80;99.90;;;;;;4919391;29;20027;-91
2021/10/07 02:43:07;;;;;;;12.15;4.18;;;12.80;99.90;;;;;;4919332;29;20028;-92
2021/10/07 02:45:32;;;;;;;11.70;4.15;;;12.80;99.90;;;;;;4919013;29;20520;-92
2021/10/07 02:47:58;;;;;;;13.65;4.05;;;12.80;99.90;;;;;;4918930;29;20051;-91
2021/10/07 02:50:27;;;;;;;14.10;3.97;;;12.80;99.90;;;;;;4935064;29;20036;-92
2021/10/07 02:52:54;;;;;;;16.23;4.85;;;12.80;99.90;;;;;;4919848;29;20024;-90
2021/10/07 02:55:20;;;;;;;9.60;3.97;;;12.80;99.90;;;;;;4922812;29;20032;-91
2021/10/07 02:57:46;;;;;;;10.48;3.85;;;12.80;99.90;;;;;;4939405;29;20032;-92
2021/10/07 03:00:14;;;;;;;20.15;5.45;;;12.80;99.90;;;;;;4922307;29;20027;-91
2021/10/07 03:02:40;;;;;;;12.20;4.40;;;12.80;99.90;;;;;;4922849;29;20034;-91
2021/10/07 03:05:06;;;;;;;15.13;3.83;;;12.80;99.90;;;;;;4922163;29;20048;-90
2021/10/07 03:07:32;;;;;;;12.63;4.13;;;12.80;99.90;;;;;;4938154;29;20031;-90
2021/10/07 03:09:58;;;;;;;9.90;3.88;;;12.80;99.90;;;;;;4939198;29;20148;-90
2021/10/07 03:12:24;;;;;;;13.15;3.90;;;12.80;99.90;;;;;;4938210;29;20043;-92
2021/10/07 03:14:49;;;;;;;16.38;4.60;;;12.80;99.90;;;;;;4939228;29;20036;-92
2021/10/07 03:17:16;;;;;;;20.08;5.72;;;12.80;99.90;;;;;;4938994;29;20031;-90
2021/10/07 03:19:43;;;;;;;14.73;4.78;;;12.80;99.90;;;;;;4938778;29;20027;-91
2021/10/07 03:22:09;;;;;;;10.68;4.85;;;12.80;99.90;;;;;;4939209;29;20020;-91
2021/10/07 03:24:35;;;;;;;8.98;3.70;;;12.80;99.90;;;;;;4938964;29;20086;-92
2021/10/07 03:27:03;;;;;;;8.77;3.65;;;12.80;99.90;;;;;;4922032;29;20027;-90
2021/10/07 03:29:30;;;;;;;15.15;4.10;;;12.80;99.90;;;;;;4939059;29;20028;-91
2021/10/07 03:31:55;;;;;;;12.63;4.10;;;12.80;99.90;;;;;;4921776;29;20032;-91
2021/10/07 03:34:21;;;;;;;16.83;4.00;;;12.80;99.90;;;;;;4938689;29;20102;-91
2021/10/07 03:36:47;;;;;;;10.40;4.20;;;12.80;99.90;;;;;;4938832;29;20038;-91
2021/10/07 03:39:13;;;;;;;7.88;4.20;;;12.80;99.90;;;;;;4921993;29;20023;-91
2021/10/07 03:41:38;;;;;;;9.35;4.10;;;12.90;99.90;;;;;;4921856;29;20509;-90
2021/10/07 03:44:04;;;;;;;9.88;3.70;;;12.90;99.90;;;;;;4922156;29;20127;-91
2021/10/07 03:46:30;;;;;;;7.45;3.38;;;12.90;99.90;;;;;;4941420;29;20035;-91
2021/10/07 03:48:56;;;;;;;12.68;3.75;;;12.90;99.90;;;;;;4935469;29;20042;-90
2021/10/07 03:51:21;;;;;;;7.47;3.55;;;12.90;99.90;;;;;;4943463;29;20099;-91
2021/10/07 03:53:47;;;;;;;9.27;4.65;;;12.90;99.90;;;;;;4922324;29;20130;-91
2021/10/07 03:56:13;;;;;;;8.85;4.70;;;12.90;99.90;;;;;;4938665;29;20024;-92
2021/10/07 03:58:38;;;;;;;7.65;3.55;;;12.90;99.90;;;;;;4921779;29;20079;-92
2021/10/07 04:01:04;;;;;;;11.40;4.60;;;12.90;99.90;;;;;;4938324;29;20430;-90
2021/10/07 04:03:30;;;;;;;8.32;3.97;;;12.90;99.90;;;;;;4920724;29;20031;-91
2021/10/07 04:05:57;;;;;;;13.40;4.47;;;12.90;99.90;;;;;;4937430;29;20039;-91
2021/10/07 04:08:23;;;;;;;12.40;5.43;;;12.90;99.90;;;;;;4921524;29;20506;-92
2021/10/07 04:10:51;;;;;;;16.60;5.10;;;12.90;99.90;;;;;;4921550;29;20023;-91
2021/10/07 04:13:21;;;;;;;12.60;4.85;;;12.90;99.90;;;;;;4938159;29;20028;-92
2021/10/07 04:15:48;;;;;;;10.80;5.20;;;12.90;99.90;;;;;;4921140;29;20031;-91
2021/10/07 04:18:14;;;;;;;14.90;5.25;;;12.90;99.90;;;;;;4921213;29;20074;-91
2021/10/07 04:20:44;;;;;;;10.05;4.80;;;12.90;99.90;;;;;;4924283;29;20610;-91
2021/10/07 04:23:11;;;;;;;10.13;4.60;;;12.90;99.90;;;;;;4937041;29;20059;-91
2021/10/07 04:25:37;;;;;;;12.82;5.30;;;12.90;99.90;;;;;;4937943;29;20032;-92
2021/10/07 04:28:06;;;;;;;9.30;4.28;;;12.90;99.90;;;;;;4921321;29;20118;-91
2021/10/07 04:30:35;;;;;;;14.13;6.18;;;12.90;99.90;;;;;;4921058;29;20028;-92
2021/10/07 04:33:05;;;;;;;11.50;6.23;;;12.90;99.90;;;;;;4936860;29;20032;-92
2021/10/07 04:35:32;;;;;;;13.57;5.38;;;12.90;99.90;;;;;;4938419;29;20038;-91
2021/10/07 04:37:58;;;;;;;10.23;5.05;;;12.90;99.90;;;;;;4920866;29;20051;-91
2021/10/07 04:40:25;;;;;;;13.77;4.70;;;12.90;99.90;;;;;;4920733;29;20478;-91
2021/10/07 04:42:51;;;;;;;10.00;5.00;;;12.90;99.90;;;;;;4920716;29;20047;-91
2021/10/07 04:45:16;;;;;;;9.05;4.90;;;12.90;99.90;;;;;;4920679;29;20027;-91
2021/10/07 04:47:42;;;;;;;9.80;4.75;;;12.90;99.90;;;;;;4920648;29;20020;-91
2021/10/07 04:50:08;;;;;;;10.27;4.85;;;12.90;99.90;;;;;;4937489;29;20036;-92
2021/10/07 04:52:34;;;;;;;11.77;5.03;;;12.80;99.90;;;;;;4920308;29;20031;-91
2021/10/07 04:55:00;;;;;;;11.45;4.97;;;12.80;99.90;;;;;;4937216;29;20523;-91
2021/10/07 04:57:25;;;;;;;6.07;3.58;;;12.80;99.90;;;;;;4920371;29;20039;-92
2021/10/07 04:59:51;;;;;;;9.63;4.20;;;12.80;99.90;;;;;;4920539;29;20036;-91
2021/10/07 05:02:17;;;;;;;10.07;4.97;;;12.80;99.90;;;;;;4920169;29;20030;-92
2021/10/07 05:04:43;;;;;;;8.77;4.32;;;12.90;99.90;;;;;;4920286;29;20083;-91
2021/10/07 05:07:08;;;;;;;11.80;6.15;;;12.90;99.90;;;;;;4936969;29;20039;-91
2021/10/07 05:09:35;;;;;;;10.57;4.57;;;12.90;99.90;;;;;;4937050;29;20027;-91
2021/10/07 05:12:00;;;;;;;15.18;6.25;;;12.90;99.90;;;;;;4937183;29;20474;-91
2021/10/07 05:14:26;;;;;;;13.13;5.95;;;12.90;99.90;;;;;;4937044;29;20095;-91
2021/10/07 05:16:52;;;;;;;22.88;6.18;;;12.90;99.90;;;;;;4936284;29;20024;-91
2021/10/07 05:19:17;;;;;;;11.95;5.90;;;12.90;99.90;;;;;;4920048;29;20027;-92
2021/10/07 05:21:43;;;;;;;14.05;6.25;;;12.90;99.90;;;;;;4936779;29;20031;-92
2021/10/07 05:24:09;;;;;;;9.98;5.95;;;12.90;99.90;;;;;;4919860;29;20036;-91
2021/10/07 05:26:34;;;;;;;12.13;5.30;;;12.90;99.90;;;;;;4936954;29;20482;-91
2021/10/07 05:29:00;;;;;;;12.27;5.88;;;12.90;99.90;;;;;;4919948;29;20039;-91
2021/10/07 05:31:26;;;;;;;15.40;6.43;;;13.00;99.90;;;;;;4936950;29;20363;-91
2021/10/07 05:33:52;;;;;;;17.48;6.50;;;12.90;99.90;;;;;;4920047;29;20652;-93
2021/10/07 05:36:17;;;;;;;14.52;6.05;;;12.90;99.90;;;;;;4937362;29;20478;-92
2021/10/07 05:38:43;;;;;;;15.02;6.30;;;12.90;99.90;;;;;;4935291;29;20051;-91
2021/10/07 05:41:09;;;;;;;11.38;5.80;;;12.90;99.90;;;;;;4941278;29;20028;-92
2021/10/07 05:43:35;;;;;;;9.40;5.18;;;12.80;99.90;;;;;;4941444;29;20043;-92
2021/10/07 05:46:01;;;;;;;12.90;5.63;;;12.80;99.90;;;;;;4919625;29;20095;-91
2021/10/07 05:48:27;;;;;;;11.68;6.10;;;12.80;99.90;;;;;;4920102;29;20020;-91
2021/10/07 05:50:53;;;;;;;13.95;6.90;;;12.80;99.90;;;;;;4936331;29;20067;-90
2021/10/07 05:53:19;;;;;;;11.38;5.07;;;12.80;99.90;;;;;;4919454;29;20044;-91
2021/10/07 05:55:45;;;;;;;9.70;4.82;;;12.90;99.90;;;;;;4920273;29;20020;-91
2021/10/07 05:58:11;;;;;;;12.38;5.82;;;12.90;99.90;;;;;;4920585;29;20548;-90
2021/10/07 06:00:37;;;;;;;13.88;6.75;;;12.90;99.90;;;;;;4921833;29;20091;-91
2021/10/07 06:03:08;;;;;;;12.75;6.28;;;12.90;99.90;;;;;;4920005;29;20027;-91
2021/10/07 06:05:34;;;;;;;18.63;8.10;;;12.90;99.90;;;;;;4919058;29;20039;-91
2021/10/07 06:07:59;;;;;;;16.42;7.95;;;12.90;99.90;;;;;;4939231;29;20039;-91
2021/10/07 06:10:25;;;;;;;18.08;7.95;;;12.90;99.90;;;;;;4919700;29;20032;-92
2021/10/07 06:12:51;;;;;;;13.95;6.47;;;12.90;99.90;;;;;;4935617;29;20035;-91
2021/10/07 06:15:17;;;;;;;17.88;7.88;;;12.90;99.90;;;;;;4918203;29;20051;-92
2021/10/07 06:17:43;;;;;;;16.58;8.30;;;12.90;99.90;;;;;;4918611;29;20031;-92
2021/10/07 06:20:31;;;;;;;20.55;8.93;;;12.90;99.90;;;;;;4935378;29;20024;-91
2021/10/07 06:23:01;;;;;;;21.17;7.85;;;12.80;99.90;;;;;;4934569;29;20474;-91
2021/10/07 06:25:27;;;;;;;19.73;8.18;;;12.90;99.90;;;;;;4934921;29;20039;-92
2021/10/07 06:27:53;;;;;;;13.50;7.15;;;12.90;99.90;;;;;;4919435;29;20028;-90
2021/10/07 06:30:21;;;;;;;7.50;4.53;;;12.90;99.90;;;;;;4922123;29;20060;-92
2021/10/07 06:32:47;;;;;;;13.60;7.40;;;12.90;99.90;;;;;;4922254;29;20035;-90
2021/10/07 06:35:13;;;;;;;15.00;7.53;;;12.90;99.90;;;;;;4922217;29;20031;-90
2021/10/07 06:37:39;;;;;;;11.77;6.22;;;12.90;99.90;;;;;;4922382;29;20030;-91
2021/10/07 06:40:07;;;;;;;8.40;5.03;;;13.00;99.90;;;;;;4922362;29;20024;-91
2021/10/07 06:42:33;;;;;;;7.05;4.47;;;13.00;99.90;;;;;;4922099;29;20049;-91
2021/10/07 06:44:59;;;;;;;15.07;7.32;;;13.00;99.90;;;;;;4921959;29;20501;-91
2021/10/07 06:47:25;;;;;;;10.02;4.78;;;13.00;99.90;;;;;;4922292;29;20027;-91
2021/10/07 06:49:52;;;;;;;11.02;6.25;;;13.10;99.90;;;;;;4939701;29;20026;-90
2021/10/07 06:52:18;;;;;;;15.27;7.22;;;13.10;99.90;;;;;;4922570;29;20497;-90
2021/10/07 06:54:43;;;;;;;14.35;8.93;;;13.10;99.90;;;;;;4922682;29;20078;-90
2021/10/07 06:57:09;;;;;;;13.20;7.40;;;13.10;99.90;;;;;;4922928;29;20177;-90
2021/10/07 06:59:34;;;;;;;12.32;6.75;;;13.10;99.90;;;;;;4938254;29;20039;-90
2021/10/07 07:02:00;;;;;;;13.70;8.68;;;13.20;99.90;;;;;;4922562;29;20032;-91
2021/10/07 07:04:26;;;;;;;16.40;7.65;;;13.20;99.90;;;;;;4939651;29;20055;-91
2021/10/07 07:06:54;;;;;;;17.38;8.50;;;13.20;99.90;;;;;;4939244;29;20028;-91
2021/10/07 07:09:20;;;;;;;13.00;7.70;;;13.20;99.90;;;;;;4922472;29;20023;-91
2021/10/07 07:11:45;;;;;;;14.10;7.25;;;13.20;99.90;;;;;;4922166;29;20032;-90
2021/10/07 07:14:11;;;;;;;18.33;7.75;;;13.20;99.90;;;;;;4922414;29;20046;-91
2021/10/07 07:16:37;;;;;;;15.57;7.38;;;13.20;99.90;;;;;;4922374;29;20039;-91
2021/10/07 07:19:03;;;;;;;14.05;6.60;;;13.30;99.90;;;;;;4936914;29;20063;-92
2021/10/07 07:21:33;;;;;;;17.25;7.85;;;13.30;99.90;;;;;;4906678;29;20059;-91
2021/10/07 07:24:00;;;;;;;12.85;7.10;;;13.30;99.90;;;;;;4925178;29;20023;-91
2021/10/07 07:26:27;;;;;;;13.10;6.88;;;13.30;99.90;;;;;;4936730;29;20031;-91
2021/10/07 07:28:54;;;;;;;13.70;7.13;;;13.30;99.90;;;;;;4936426;29;20016;-90
2021/10/07 07:31:20;;;;;;;13.02;7.40;;;13.30;99.90;;;;;;4947685;29;20458;-91
2021/10/07 07:33:47;;;;;;;11.18;5.90;;;13.30;99.90;;;;;;4921723;29;20054;-90
2021/10/07 07:36:17;;;;;;;13.50;7.75;;;13.40;99.90;;;;;;4920756;29;20386;-90
2021/10/07 07:38:43;;;;;;;16.42;7.07;;;13.30;99.90;;;;;;4937245;29;20114;-90
2021/10/07 07:41:13;;;;;;;12.38;6.50;;;13.40;99.90;;;;;;4921611;29;20417;-90
2021/10/07 07:43:40;;;;;;;15.70;7.43;;;13.40;99.90;;;;;;4921246;29;20501;-90
2021/10/07 07:46:06;;;;;;;18.05;7.75;;;13.40;99.90;;;;;;4938503;29;20103;-90
2021/10/07 07:48:32;;;;;;;16.17;8.27;;;13.40;99.90;;;;;;4921442;29;20027;-91
2021/10/07 07:50:58;;;;;;;18.60;8.55;;;13.40;99.90;;;;;;4915725;29;20024;-91
2021/10/07 07:53:24;;;;;;;10.27;5.88;;;13.40;99.90;;;;;;4937711;29;20195;-92
2021/10/07 07:55:49;;;;;;;9.25;5.20;;;13.40;99.90;;;;;;4920791;29;20031;-91
2021/10/07 07:58:19;;;;;;;11.88;6.03;;;13.40;99.90;;;;;;4924099;29;20023;-92
2021/10/07 08:00:47;;;;;;;11.25;5.80;;;13.50;99.90;;;;;;4958537;29;20027;-93
2021/10/07 08:03:12;;;;;;;16.92;7.35;;;13.50;99.90;;;;;;4929192;29;20081;-92
2021/10/07 08:05:38;;;;;;;13.77;6.50;;;13.50;99.90;;;;;;4916216;29;20071;-91
2021/10/07 08:08:07;;;;;;;14.75;7.53;;;13.60;99.90;;;;;;4932686;29;20544;-92
2021/10/07 08:10:33;;;;;;;14.40;7.50;;;13.60;99.90;;;;;;4920586;29;20028;-91
2021/10/07 08:13:00;;;;;;;16.58;7.45;;;13.60;99.90;;;;;;4919155;29;20027;-91
2021/10/07 08:15:26;;;;;;;17.50;8.25;;;13.70;99.90;;;;;;4916204;29;20031;-91
2021/10/07 08:17:52;;;;;;;22.88;9.52;;;13.70;99.90;;;;;;4936790;29;20031;-90
2021/10/07 08:20:19;;;;;;;14.38;7.00;;;13.80;99.90;;;;;;4936957;29;20059;-91
2021/10/07 08:22:47;;;;;;;16.15;7.90;;;13.80;99.90;;;;;;4936873;29;20027;-91
2021/10/07 08:25:14;;;;;;;17.98;9.00;;;13.80;99.90;;;;;;4936650;29;20024;-92
2021/10/07 08:27:40;;;;;;;17.73;8.80;;;13.80;99.90;;;;;;4920073;29;20036;-91
2021/10/07 08:30:08;;;;;;;15.23;9.05;;;13.90;99.90;;;;;;4945611;29;20026;-90
2021/10/07 08:32:34;;;;;;;20.17;8.82;;;13.90;99.90;;;;;;4944609;29;20038;-91
2021/10/07 08:34:59;;;;;;;18.50;8.90;;;14.00;99.90;;;;;;4939494;29;20035;-91
2021/10/07 08:37:27;;;;;;;16.58;8.93;;;14.00;99.90;;;;;;4936650;29;20038;-90
2021/10/07 08:39:52;;;;;;;15.55;8.40;;;14.10;99.90;;;;;;4943138;29;20043;-91
2021/10/07 08:42:18;;;;;;;22.10;9.52;;;14.20;99.90;;;;;;4933089;29;20100;-91
2021/10/07 08:44:45;;;;;;;17.15;9.00;;;14.20;99.90;;;;;;4929254;29;20036;-90
2021/10/07 08:47:12;;;;;;;19.80;10.35;;;14.30;99.90;;;;;;4924532;29;20039;-91
2021/10/07 08:49:42;;;;;;;15.63;8.70;;;14.40;99.90;;;;;;4945676;28;20039;-91
2021/10/07 08:52:07;;;;;;;18.50;9.20;;;14.50;99.90;;;;;;4927788;29;20055;-90
2021/10/07 08:54:34;;;;;;;12.45;7.90;;;14.70;99.90;;;;;;4930458;29;20074;-90
2021/10/07 08:57:04;;;;;;;13.57;6.63;;;14.80;99.90;;;;;;4919975;29;20490;-90
2021/10/07 08:59:30;;;;;;;;;;;15.00;99.90;;;;;;4937955;29;20047;-91
2021/10/07 09:02:01;;;;;;;16.48;7.35;;;15.20;99.90;;;;;;4937344;29;19910;-90
2021/10/07 09:04:29;;;;;;;9.50;5.78;;;15.30;99.90;;;;;;4933999;29;20087;-89
2021/10/07 09:06:58;;;;;;;14.35;5.38;;;15.50;99.90;;;;;;4935661;29;20028;-91
2021/10/07 09:09:25;;;;;;;14.73;5.63;;;15.60;99.90;;;;;;4936711;29;20024;-92
2021/10/07 09:12:00;;;;;;;12.82;5.57;;;15.70;99.90;;;;;;4920345;29;20051;-90
2021/10/07 09:14:32;;;;;;;10.35;4.78;;;15.90;99.90;;;;;;4929814;29;20058;-91
2021/10/07 09:17:00;;;;;;;12.25;5.40;;;15.90;99.90;;;;;;4933162;29;20024;-90
2021/10/07 09:19:32;;;;;;;11.50;4.43;;;16.00;99.90;;;;;;4922301;29;20044;-92
2021/10/07 09:22:11;;;;;;;8.65;5.30;;;16.00;99.90;;;;;;4920099;29;20746;-90
2021/10/07 09:24:46;;;;;;;7.68;4.88;;;16.10;99.90;;;;;;4937236;29;20032;-91
2021/10/07 09:27:21;;;;;;;11.85;4.93;;;16.10;99.90;;;;;;4935286;29;20028;-91
2021/10/07 09:29:57;;;;;;;10.40;5.28;;;16.20;99.90;;;;;;4919732;29;20055;-90
2021/10/07 09:32:23;;;;;;;10.63;5.05;;;16.20;99.90;;;;;;4918717;29;20020;-91
2021/10/07 09:34:50;;;;;;;10.30;4.65;;;16.30;99.90;;;;;;4920775;29;20046;-93
2021/10/07 09:37:29;;;;;;;9.68;4.93;;;16.40;99.90;;;;;;4921440;29;20028;-92
2021/10/07 09:40:09;;;;;;;7.13;4.28;;;16.50;99.90;;;;;;4920722;29;20032;-91
2021/10/07 09:42:46;;;;;;;9.65;3.67;;;16.50;99.90;;;;;;4918625;29;20039;-91
2021/10/07 09:45:20;;;;;;;6.93;3.50;;;16.60;99.90;;;;;;4917251;29;20028;-90
2021/10/07 09:47:50;;;;;;;6.80;3.33;;;16.60;99.90;;;;;;4919424;29;20024;-89
2021/10/07 09:50:30;;;;;;;6.60;3.22;;;16.60;99.90;;;;;;4930541;29;20126;-92
2021/10/07 09:53:16;;;;;;;7.55;3.40;;;16.60;99.90;;;;;;4930095;29;20031;-91
2021/10/07 09:55:51;;;;;;;10.65;3.35;;;16.70;99.90;;;;;;4929073;29;20481;-91
2021/10/07 09:58:25;;;;;;;4.57;2.65;;;16.70;99.90;;;;;;4927261;29;20035;-91
2021/10/07 10:00:57;;;;;;;6.15;2.90;;;16.70;99.90;;;;;;4921290;29;20485;-92
2021/10/07 10:03:29;;;;;;;7.85;2.20;;;16.70;99.90;;;;;;4935949;29;20052;-93
2021/10/07 10:06:04;;;;;;;6.88;2.75;;;16.60;99.90;;;;;;4919018;29;20034;-91
2021/10/07 10:08:30;;;;;;;4.40;2.63;;;16.60;99.90;;;;;;4919754;29;20032;-93
2021/10/07 10:10:58;;;;;;;4.20;2.10;;;16.50;99.90;;;;;;4918827;29;20028;-91
2021/10/07 10:13:24;;;;;;;3.13;2.15;;;16.50;99.90;;;;;;4918098;29;20099;-92
2021/10/07 10:15:50;;;;;;;2.83;2.30;;;16.40;99.90;;;;;;4918473;29;20455;-91
2021/10/07 10:18:17;;;;;;;4.65;2.30;;;16.30;99.90;;;;;;4935828;29;20056;-92
2021/10/07 10:20:48;;;;;;;4.80;2.67;;;16.30;99.90;;;;;;4935234;29;20059;-93
2021/10/07 10:23:16;;;;;;;4.18;2.55;;;16.20;99.90;;;;;;4917730;29;20098;-94
2021/10/07 10:26:25;;;;;;;5.63;2.63;;;16.20;99.90;;;;;;4917919;29;20031;-91
2021/10/07 10:28:54;;;;;;;5.85;2.70;;;16.20;99.90;;;;;;4915615;29;20027;-92
2021/10/07 10:31:29;;;;;;;6.30;3.30;;;16.20;99.90;;;;;;4918253;29;20107;-93
2021/10/07 10:34:13;;;;;;;4.60;2.55;;;16.20;99.90;;;;;;4917862;29;20067;-92
2021/10/07 10:36:53;;;;;;;3.08;2.05;;;16.30;99.90;;;;;;4917038;29;20099;-90
2021/10/07 10:39:27;;;;;;;5.65;2.53;;;16.40;99.90;;;;;;4917148;29;20019;-92
2021/10/07 10:41:59;;;;;;;4.13;2.10;;;16.40;99.90;;;;;;4917779;29;20031;-91
2021/10/07 10:44:27;;;;;;;6.75;2.90;;;16.40;99.90;;;;;;4917960;29;20031;-90
2021/10/07 10:47:08;;;;;;;5.68;3.20;;;16.50;99.90;;;;;;4917141;29;20036;-93
2021/10/07 10:49:46;;;;;;;4.03;2.15;;;16.50;99.90;;;;;;4919189;29;20054;-91
2021/10/07 10:52:14;;;;;;;3.45;2.33;;;16.50;99.90;;;;;;4918400;29;20095;-93
2021/10/07 10:54:49;;;;;;;8.85;3.28;;;16.60;99.90;;;;;;4918364;29;20070;-92
2021/10/07 10:57:45;;;;;;;3.75;2.60;;;16.60;99.90;;;;;;4921486;29;20023;-93
2021/10/07 11:00:11;;;;;;;4.40;2.40;;;16.60;99.90;;;;;;4921924;29;20179;-92
2021/10/07 11:02:44;;;;;;;7.43;3.10;;;16.60;99.90;;;;;;4929987;28;20059;-92
2021/10/07 11:05:16;;;;;;;3.92;2.67;;;16.60;99.90;;;;;;4931435;29;20494;-92
2021/10/07 11:07:42;;;;;;;4.22;2.45;;;16.60;99.90;;;;;;4912265;29;20028;-93
2021/10/07 11:10:14;;;;;;;5.32;2.60;;;16.70;99.90;;;;;;4903068;29;20028;-92
2021/10/07 11:12:50;;;;;;;4.65;2.80;;;16.70;99.90;;;;;;4915454;29;20035;-90
2021/10/07 11:15:17;;;;;;;6.15;2.63;;;16.80;99.90;;;;;;4921611;29;20066;-90
2021/10/07 11:17:44;;;;;;;4.95;2.30;;;16.90;99.90;;;;;;4921867;29;20046;-91
2021/10/07 13:15:03;;;;;;;4.70;2.33;;;18.30;99.90;;;;;;6236363;22;20321;-95
2021/10/07 13:17:30;;;;;;;3.00;2.05;;;18.40;99.90;;;;;;6195400;23;20047;-95
2021/10/07 13:19:56;;;;;;;3.60;2.90;;;18.50;99.90;;;;;;6199640;23;20009;-95
2021/10/07 13:24:58;;;;;;;8.65;2.60;;;18.70;99.90;;;;;;6238187;22;20035;-95
2021/10/07 13:27:26;;;;;;;3.03;2.20;;;18.70;99.90;;;;;;6205877;23;20008;-95
2021/10/07 13:29:55;;;;;;;3.58;1.85;;;18.90;99.90;;;;;;6230399;23;20031;-96
2021/10/07 13:32:26;;;;;;;3.35;1.88;;;19.10;99.90;;;;;;6198298;23;20039;-94
2021/10/07 13:34:52;;;;;;;9.65;2.28;;;19.40;99.90;;;;;;6197838;23;20012;-96
2021/10/07 13:37:20;;;;;;;6.22;2.20;;;19.70;99.90;;;;;;6197453;23;20005;-96
2021/10/07 13:39:47;;;;;;;3.83;2.20;;;19.90;99.90;;;;;;6197499;23;20024;-95
2021/10/07 13:42:19;;;;;;;5.10;2.00;;;20.20;99.90;;;;;;6200764;23;20039;-96
2021/10/07 13:44:47;;;;;;;8.85;1.98;;;20.70;99.90;;;;;;6208811;23;20017;-96
2021/10/07 13:47:13;;;;;;;3.17;1.70;;;21.10;99.90;;;;;;6206227;23;20004;-96
2021/10/07 13:49:39;;;;;;;2.75;1.90;;;21.60;99.90;;;;;;6203832;23;20013;-95
2021/10/07 13:52:11;;;;;;;6.57;2.00;;;22.10;99.90;;;;;;6197141;23;20001;-96
2021/10/07 13:54:37;;;;;;;3.22;1.80;;;22.80;99.90;;;;;;6176858;23;20004;-96
2021/10/07 13:57:07;;;;;;;5.68;1.70;;;23.20;98.80;;;;;;6199303;23;20005;-95
2021/10/07 13:59:40;;;;;;;3.72;1.48;;;23.50;96.50;;;;;;6180840;23;20083;-96
2021/10/07 14:02:06;;;;;;;7.50;1.98;;;23.70;95.30;;;;;;6204491;23;20013;-94
2021/10/07 14:04:32;;;;;;;3.83;1.73;;;24.10;94.00;;;;;;6204343;23;20004;-95
2021/10/07 14:06:57;;;;;;;5.63;1.60;;;24.30;92.80;;;;;;6202948;23;20012;-96
2021/10/07 14:09:23;;;;;;;3.45;1.70;;;24.60;91.90;;;;;;6206169;23;20000;-96
2021/10/07 14:11:51;;;;;;;4.82;1.85;;;24.80;90.90;;;;;;6206320;23;20004;-96
2021/10/07 14:14:19;;;;;;;6.80;2.10;;;24.90;90.20;;;;;;6207268;23;20004;-96
2021/10/07 14:16:45;;;;;;;3.50;1.90;;;25.00;89.00;;;;;;6208366;23;20352;-96
2021/10/07 14:19:15;;;;;;;8.23;3.80;;;25.20;87.50;;;;;;6206058;23;20004;-96
2021/10/07 14:21:44;;;;;;;3.65;1.83;;;25.20;86.00;;;;;;6206434;23;20012;-95
2021/10/07 14:24:10;;;;;;;4.22;1.98;;;25.30;85.20;;;;;;6207807;23;20016;-96
2021/10/07 14:26:37;;;;;;;2.85;1.50;;;25.30;83.70;;;;;;6235449;23;20000;-96
2021/10/07 14:29:03;;;;;;;4.13;2.10;;;25.40;83.60;;;;;;6238131;23;19993;-96
2021/10/07 14:31:30;;;;;;;7.40;3.58;;;25.60;83.30;;;;;;6237214;23;20076;-95
2021/10/07 14:33:57;;;;;;;4.95;2.75;;;25.70;82.30;;;;;;6238725;23;20016;-96
2021/10/07 14:36:38;;;;;;;3.20;1.58;;;25.80;81.80;;;;;;6236056;23;20012;-96
2021/10/07 14:39:03;;;;;;;;;;;25.80;81.10;;;;;;6237566;23;20011;-96
2021/10/07 14:41:43;;;;;;;4.00;2.20;;;25.70;80.40;;;;;;6229224;23;20298;-95
2021/10/07 14:44:09;;;;;;;3.73;2.17;;;25.40;79.20;;;;;;6223584;23;20111;-96
2021/10/07 14:46:34;;;;;;;5.93;2.45;;;25.00;79.20;;;;;;6221200;23;20004;-95